Time;durP1;ratioP1;P1;durP2;ratioP2;P2;SDS_P1;SDS_P2;PMS_P1;PMS_P2;Temp;Humidity;BMP_temperature;BMP_pressure;BME280_temperature;BME280_humidity;BME280_pressure;Samples;Min_cycle;Max_cycle;Signal;HPM_P1;HPM_P2
2022/06/01 00:02:20;;;;;;;2.25;1.90;;;13.90;99.90;;;14.02;88.08;100749.16;5125219;29;20054;-66
2022/06/01 00:04:52;;;;;;;2.55;1.85;;;13.80;99.90;;;13.98;88.38;100749.91;5125339;29;20081;-66
2022/06/01 00:07:25;;;;;;;2.80;1.52;;;13.80;99.90;;;13.97;88.10;100750.78;5124884;29;20059;-66
2022/06/01 00:09:57;;;;;;;2.35;1.60;;;13.80;99.90;;;13.95;88.44;100755.09;5124625;28;20051;-67
2022/06/01 00:12:30;;;;;;;2.28;1.40;;;13.80;99.90;;;13.92;88.28;100755.91;5125294;29;20142;-66
2022/06/01 00:15:03;;;;;;;3.35;1.90;;;13.70;99.90;;;13.90;88.30;100756.75;5133419;28;20054;-65
2022/06/01 00:17:35;;;;;;;2.53;1.85;;;13.70;99.90;;;13.87;88.32;100759.28;5145327;28;20047;-65
2022/06/01 00:20:08;;;;;;;6.72;1.67;;;13.60;99.90;;;13.84;87.94;100763.63;5144149;28;20050;-65
2022/06/01 00:22:43;;;;;;;2.03;1.73;;;13.60;99.90;;;13.79;87.53;100767.88;5139382;28;20304;-66
2022/06/01 00:25:16;;;;;;;2.30;1.42;;;13.60;99.90;;;13.77;87.68;100769.59;5144863;28;20061;-66
2022/06/01 00:27:48;;;;;;;2.20;1.48;;;13.60;99.90;;;13.75;87.23;100766.03;5144916;28;20244;-67
2022/06/01 00:30:22;;;;;;;2.22;1.73;;;13.60;99.90;;;13.74;87.14;100766.88;5144276;28;20061;-66
2022/06/01 00:32:54;;;;;;;3.53;1.50;;;13.50;99.90;;;13.73;87.22;100767.75;5144892;28;20484;-66
2022/06/01 00:35:27;;;;;;;3.17;2.22;;;13.60;99.90;;;13.70;86.99;100772.94;5144789;28;20400;-67
2022/06/01 00:38:00;;;;;;;4.22;1.90;;;13.50;99.90;;;13.64;86.92;100769.28;5144752;28;20057;-66
2022/06/01 00:40:33;;;;;;;2.90;2.03;;;13.50;99.90;;;13.55;86.70;100772.56;5144591;28;20053;-66
2022/06/01 00:43:22;;;;;;;3.22;2.03;;;13.40;99.90;;;13.50;86.67;100764.63;5145048;28;20499;-66
2022/06/01 00:45:54;;;;;;;2.80;1.90;;;13.40;99.90;;;13.47;87.17;100758.44;5141918;28;20059;-66
2022/06/01 00:48:29;;;;;;;2.60;1.90;;;13.30;99.90;;;13.40;86.79;100759.16;5146595;28;20498;-66
2022/06/01 00:51:01;;;;;;;2.75;2.10;;;13.20;99.90;;;13.38;87.56;100758.25;5148431;28;20054;-65
2022/06/01 00:53:38;;;;;;;2.58;1.92;;;13.20;99.90;;;13.38;88.10;100755.63;5148773;28;20488;-67
2022/06/01 00:56:15;;;;;;;2.55;2.05;;;13.20;99.90;;;13.37;87.97;100751.25;5148579;28;20143;-65
2022/06/01 00:58:51;;;;;;;2.72;1.73;;;13.20;99.90;;;13.36;88.24;100755.56;5148217;28;20054;-67
2022/06/01 01:01:24;;;;;;;2.95;1.70;;;13.20;99.90;;;13.38;88.32;100758.25;5143305;28;20129;-67
2022/06/01 01:03:58;;;;;;;4.03;1.52;;;13.20;99.90;;;13.40;88.54;100756.53;5148199;28;20051;-67
2022/06/01 01:06:33;;;;;;;1.88;1.48;;;13.20;99.90;;;13.41;88.69;100753.06;5148275;28;20051;-66
2022/06/01 01:09:09;;;;;;;2.13;1.58;;;13.20;99.90;;;13.40;88.71;100748.69;5148135;28;20082;-66
2022/06/01 01:11:49;;;;;;;3.15;1.70;;;13.20;99.90;;;13.39;88.89;100754.75;5148069;28;20047;-66
2022/06/01 01:14:26;;;;;;;2.58;1.77;;;13.20;99.90;;;13.36;89.07;100755.56;5144813;28;20043;-66
2022/06/01 01:16:59;;;;;;;2.80;1.83;;;13.20;99.90;;;13.34;88.92;100748.53;5147993;28;20060;-67
2022/06/01 01:19:36;;;;;;;4.47;2.20;;;13.20;99.90;;;13.30;88.76;100745.88;5148391;28;20118;-67
2022/06/01 01:22:22;;;;;;;2.20;2.00;;;13.10;99.90;;;13.28;88.45;100747.53;5148030;28;20051;-67
2022/06/01 01:25:18;;;;;;;3.78;1.92;;;13.10;99.90;;;13.24;88.74;100752.69;5148201;28;20051;-66
2022/06/01 01:27:53;;;;;;;3.28;2.10;;;13.10;99.90;;;13.21;88.83;100761.34;5148013;28;20050;-67
2022/06/01 01:30:46;;;;;;;4.07;1.80;;;13.00;99.90;;;13.17;88.51;100759.47;5147906;28;20050;-66
2022/06/01 01:33:22;;;;;;;2.92;2.63;;;13.00;99.90;;;13.12;88.83;100757.59;5147628;28;20057;-67
2022/06/01 01:35:57;;;;;;;2.28;1.63;;;13.00;99.90;;;13.06;88.56;100749.59;5148100;28;20047;-67
2022/06/01 01:38:41;;;;;;;2.58;1.98;;;12.90;99.90;;;12.98;88.73;100752.03;5147539;28;20257;-67
2022/06/01 01:41:20;;;;;;;2.97;2.00;;;12.80;99.90;;;12.91;88.61;100750.09;5147434;28;20058;-66
2022/06/01 01:44:01;;;;;;;2.30;1.65;;;12.80;99.90;;;12.87;89.31;100759.59;5147988;28;20062;-66
2022/06/01 01:46:33;;;;;;;4.00;1.60;;;12.70;99.90;;;12.84;89.44;100750.78;5147751;28;20440;-66
2022/06/01 01:49:05;;;;;;;2.45;1.73;;;12.70;99.90;;;12.80;89.51;100746.34;5147370;28;20058;-67
2022/06/01 01:51:38;;;;;;;2.85;2.08;;;12.60;99.90;;;12.74;89.14;100747.06;5147597;28;20408;-66
2022/06/01 01:54:24;;;;;;;2.85;1.83;;;12.60;99.90;;;12.67;89.19;100742.53;5147297;28;20050;-67
2022/06/01 01:57:20;;;;;;;3.50;2.00;;;12.50;99.90;;;12.60;89.28;100744.09;5147403;28;20105;-65
2022/06/01 02:00:07;;;;;;;2.63;1.80;;;12.50;99.90;;;12.57;89.77;100745.75;5146511;28;20051;-66
2022/06/01 02:02:49;;;;;;;2.67;1.73;;;12.40;99.90;;;12.53;89.58;100742.19;5147087;28;20051;-67
2022/06/01 02:08:27;;;;;;;2.75;1.98;;;12.40;99.90;;;12.46;89.54;100751.59;5146740;28;20069;-66
2022/06/01 02:14:01;;;;;;;4.50;2.40;;;12.30;99.90;;;12.37;89.75;100746.09;5146835;28;20050;-66
2022/06/01 02:16:39;;;;;;;3.45;2.50;;;12.20;99.90;;;12.36;89.38;100751.28;5147048;28;20065;-66
2022/06/01 02:19:16;;;;;;;2.05;1.55;;;12.20;99.90;;;12.34;89.02;100734.69;5146869;28;20058;-66
2022/06/01 02:21:48;;;;;;;3.33;2.13;;;12.20;99.90;;;12.31;88.85;100743.31;5146833;28;20063;-67
2022/06/01 02:24:21;;;;;;;2.40;1.95;;;12.20;99.90;;;12.30;88.83;100741.56;5146958;28;20066;-66
2022/06/01 02:26:56;;;;;;;3.10;1.83;;;12.20;99.90;;;12.28;88.93;100745.00;5147083;28;20059;-65
2022/06/01 02:29:34;;;;;;;2.25;1.83;;;12.10;99.90;;;12.25;88.74;100745.78;5146756;28;20053;-67
2022/06/01 02:32:08;;;;;;;2.17;1.75;;;12.10;99.90;;;12.22;88.82;100753.53;5146799;28;20417;-65
2022/06/01 02:34:43;;;;;;;2.47;1.83;;;12.10;99.90;;;12.17;88.69;100757.75;5146636;28;20050;-67
2022/06/01 02:37:17;;;;;;;3.05;1.85;;;12.00;99.90;;;12.11;88.57;100757.56;5146587;28;20405;-67
2022/06/01 02:39:54;;;;;;;2.72;1.73;;;12.00;99.90;;;12.04;88.52;100756.53;5146507;28;20051;-65
2022/06/01 02:42:26;;;;;;;2.45;1.83;;;11.90;99.90;;;11.98;88.42;100760.69;5146581;28;20057;-65
2022/06/01 02:45:03;;;;;;;3.20;2.00;;;11.90;99.90;;;11.92;88.18;100758.78;5146530;28;20051;-65
2022/06/01 02:47:39;;;;;;;2.17;1.70;;;11.80;99.90;;;11.85;88.45;100762.94;5146552;28;20043;-67
2022/06/01 02:50:16;;;;;;;2.85;1.98;;;11.70;99.90;;;11.79;88.33;100764.47;5141298;28;20054;-65
2022/06/01 02:52:49;;;;;;;2.97;1.92;;;11.70;99.90;;;11.73;88.36;100765.16;5146350;28;20057;-67
2022/06/01 02:55:23;;;;;;;2.60;2.05;;;11.60;99.90;;;11.69;88.49;100763.31;5146294;28;20051;-66
2022/06/01 02:57:56;;;;;;;2.50;1.70;;;11.60;99.90;;;11.65;88.72;100767.53;5146544;28;20051;-66
2022/06/01 03:00:35;;;;;;;2.70;1.80;;;11.50;99.90;;;11.61;88.90;100770.94;5145731;28;20051;-66
2022/06/01 03:03:09;;;;;;;2.20;1.75;;;11.50;99.90;;;11.57;88.61;100776.88;5146248;28;20058;-66
2022/06/01 03:05:42;;;;;;;3.08;1.77;;;11.50;99.90;;;11.54;88.94;100771.59;5146270;28;20047;-67
2022/06/01 03:08:14;;;;;;;2.38;1.88;;;11.40;99.90;;;11.54;89.46;100768.97;5145920;28;20050;-66
2022/06/01 03:10:47;;;;;;;2.03;1.63;;;11.40;99.90;;;11.53;89.50;100772.41;5144779;28;20555;-66
2022/06/01 03:13:21;;;;;;;8.85;2.00;;;11.40;99.90;;;11.52;89.24;100773.22;5146011;28;20062;-66
2022/06/01 03:15:55;;;;;;;2.63;1.80;;;11.40;99.90;;;11.49;89.11;100770.53;5146026;28;20566;-66
2022/06/01 03:18:28;;;;;;;2.85;1.67;;;11.40;99.90;;;11.46;89.13;100770.44;5145569;28;20078;-66
2022/06/01 03:21:01;;;;;;;2.47;1.98;;;11.30;99.90;;;11.44;89.28;100777.34;5145604;28;20397;-65
2022/06/01 03:23:33;;;;;;;2.53;1.92;;;11.30;99.90;;;11.42;89.27;100773.81;5145684;28;20101;-67
2022/06/01 03:26:05;;;;;;;3.22;1.80;;;11.30;99.90;;;11.39;88.91;100785.03;5146023;28;20047;-67
2022/06/01 03:28:37;;;;;;;2.78;1.80;;;11.30;99.90;;;11.36;88.90;100789.28;5145569;28;20167;-67
2022/06/01 03:31:11;;;;;;;2.55;1.77;;;11.30;99.90;;;11.34;88.99;100783.09;5145780;28;20051;-66
2022/06/01 03:33:43;;;;;;;2.28;1.60;;;11.30;99.90;;;11.32;88.99;100787.41;5145359;28;20060;-66
2022/06/01 03:36:15;;;;;;;2.60;1.63;;;11.20;99.90;;;11.32;89.01;100784.78;5145839;28;20050;-66
2022/06/01 03:38:47;;;;;;;2.90;2.00;;;11.20;99.90;;;11.33;89.47;100782.22;5145501;28;20046;-66
2022/06/01 03:41:20;;;;;;;2.50;1.55;;;11.20;99.90;;;11.35;89.33;100788.41;5145335;28;20415;-67
2022/06/01 03:46:43;;;;;;;2.03;1.52;;;11.30;99.90;;;11.39;89.55;100790.25;5145743;28;20058;-66
2022/06/01 03:49:15;;;;;;;3.35;1.92;;;11.30;99.90;;;11.40;89.69;100786.78;5145351;28;20057;-66
2022/06/01 03:51:47;;;;;;;3.35;1.98;;;11.30;99.90;;;11.41;89.63;100787.69;5145411;28;20054;-67
2022/06/01 03:54:20;;;;;;;2.83;1.73;;;11.30;99.90;;;11.45;90.10;100796.50;5145350;28;20456;-67
2022/06/01 03:56:52;;;;;;;2.05;1.80;;;11.30;99.90;;;11.51;90.34;100796.69;5145528;28;20063;-67
2022/06/01 03:59:24;;;;;;;1.95;1.45;;;11.40;99.90;;;11.55;90.48;100789.00;5145328;28;20051;-66
2022/06/01 04:02:01;;;;;;;3.10;2.03;;;11.40;99.90;;;11.60;90.54;100784.78;5145089;28;20053;-67
2022/06/01 04:07:07;;;;;;;3.10;1.60;;;11.60;99.90;;;11.72;90.30;100794.72;5207292;22;20061;-88
2022/06/01 04:09:39;;;;;;;2.65;1.80;;;11.60;99.90;;;11.78;90.27;100799.25;5190558;28;20061;-89
2022/06/01 04:12:11;;;;;;;2.13;1.52;;;11.70;99.90;;;11.82;90.37;100801.16;5190198;28;20058;-89
2022/06/01 04:14:43;;;;;;;2.30;1.52;;;11.70;99.90;;;11.86;90.09;100803.00;5208224;28;20069;-89
2022/06/01 04:17:16;;;;;;;1.35;1.25;;;11.70;99.90;;;11.90;89.98;100804.88;5207765;28;20512;-88
2022/06/01 04:19:48;;;;;;;1.95;1.60;;;11.80;99.90;;;11.91;89.84;100802.31;5207286;28;20057;-90
2022/06/01 04:22:21;;;;;;;2.65;1.30;;;11.80;99.90;;;11.96;89.63;100810.28;5191115;28;20054;-88
2022/06/01 04:24:53;;;;;;;1.85;1.42;;;11.80;99.90;;;11.98;89.33;100811.19;5186804;28;20065;-89
2022/06/01 04:27:25;;;;;;;1.35;1.25;;;11.80;99.90;;;12.00;89.07;100806.94;5186994;28;20054;-90
2022/06/01 04:29:57;;;;;;;1.80;1.33;;;11.90;99.90;;;12.06;88.28;100814.03;5186824;28;20524;-89
2022/06/01 04:32:32;;;;;;;1.65;1.40;;;11.90;99.90;;;12.05;87.60;100807.03;5189945;28;20046;-88
2022/06/01 04:35:07;;;;;;;1.50;1.33;;;11.90;99.90;;;12.10;87.70;100819.41;5196494;28;20050;-88
2022/06/01 04:37:39;;;;;;;3.35;1.95;;;11.90;99.90;;;12.12;87.10;100815.09;5205029;28;20057;-89
2022/06/01 04:40:13;;;;;;;2.60;1.80;;;12.00;99.90;;;12.15;86.72;100811.72;5207414;28;20405;-89
2022/06/01 04:42:45;;;;;;;1.73;1.30;;;12.00;99.90;;;12.19;86.38;100813.53;5207894;28;20046;-89
2022/06/01 04:45:19;;;;;;;1.83;1.08;;;12.10;99.90;;;12.26;86.91;100809.38;5208257;28;20042;-87
2022/06/01 04:47:52;;;;;;;2.08;1.83;;;12.10;99.90;;;12.41;86.31;100809.81;5207873;28;20055;-89
2022/06/01 04:50:24;;;;;;;2.13;1.92;;;12.20;99.90;;;12.73;87.49;100815.94;5207436;28;20049;-89
2022/06/01 04:52:56;;;;;;;3.80;2.00;;;12.50;99.90;;;13.16;86.05;100825.72;5207616;28;20056;-89
2022/06/01 04:55:28;;;;;;;2.85;1.90;;;12.80;99.90;;;13.63;84.16;100830.34;5207505;28;20045;-89
2022/06/01 04:58:00;;;;;;;3.63;1.95;;;13.20;99.90;;;14.03;80.97;100835.66;5207411;28;20061;-90
2022/06/01 05:00:33;;;;;;;2.97;1.88;;;13.60;99.90;;;14.44;77.91;100819.00;5207855;28;20049;-89
2022/06/01 05:03:07;;;;;;;2.67;1.73;;;13.90;99.90;;;14.89;75.07;100822.50;5207543;28;20049;-89
2022/06/01 05:05:39;;;;;;;2.50;1.73;;;14.40;99.90;;;15.31;72.79;100837.19;5206806;28;20052;-88
2022/06/01 05:08:15;;;;;;;3.30;1.70;;;14.80;99.90;;;15.74;69.89;100832.66;5207026;28;20079;-89
2022/06/01 05:10:47;;;;;;;4.18;1.90;;;15.20;99.90;;;16.14;67.16;100838.44;5207721;28;20045;-88
2022/06/01 05:13:20;;;;;;;2.65;1.60;;;15.50;99.90;;;16.46;65.22;100837.09;5207234;28;20056;-89
2022/06/01 05:15:54;;;;;;;3.42;1.73;;;15.80;99.90;;;16.67;64.19;100841.69;5206957;28;20045;-88
2022/06/01 05:18:28;;;;;;;;;;;16.10;99.90;;;16.92;62.15;100834.97;5207239;28;20092;-88
2022/06/01 05:21:00;;;;;;;1.85;1.42;;;16.30;99.00;;;17.22;61.15;100841.41;5206987;28;19921;-89
2022/06/01 05:23:32;;;;;;;3.35;1.77;;;16.60;98.40;;;17.47;59.89;100842.44;5207358;28;20056;-90
2022/06/01 05:26:05;;;;;;;1.80;1.60;;;16.80;97.50;;;17.71;58.81;100839.13;5207230;28;20053;-90
2022/06/01 05:28:37;;;;;;;1.98;1.52;;;17.10;96.90;;;17.95;58.61;100847.22;5206968;28;20054;-88
2022/06/01 05:31:12;;;;;;;2.17;1.55;;;17.30;96.50;;;18.19;56.84;100841.16;5207429;28;20045;-88
2022/06/01 05:33:46;;;;;;;3.05;1.63;;;17.50;95.30;;;18.34;56.35;100835.97;5208029;28;20454;-89
2022/06/01 05:36:19;;;;;;;4.57;1.90;;;17.60;94.80;;;18.51;55.83;100840.41;5211726;28;20054;-88
2022/06/01 05:38:51;;;;;;;3.55;1.70;;;17.90;94.30;;;18.70;55.68;100851.03;5211897;28;20129;-89
2022/06/01 05:41:23;;;;;;;4.03;1.90;;;18.00;94.10;;;19.01;55.21;100851.09;5212077;28;20053;-88
2022/06/01 05:43:56;;;;;;;2.90;1.80;;;18.30;93.80;;;19.29;54.13;100845.84;5211274;28;20056;-87
2022/06/01 05:46:28;;;;;;;5.13;2.28;;;18.50;93.00;;;19.49;52.97;100844.06;5210538;28;20049;-88
2022/06/01 05:49:02;;;;;;;4.20;1.60;;;18.70;91.90;;;19.57;52.72;100844.94;5210518;28;20046;-89
2022/06/01 05:51:35;;;;;;;3.85;1.92;;;18.90;91.50;;;19.74;52.35;100856.41;5211479;28;20045;-87
2022/06/01 05:54:07;;;;;;;3.25;2.08;;;19.00;91.00;;;19.90;51.76;100857.28;5210572;28;20076;-88
2022/06/01 05:56:39;;;;;;;5.63;1.75;;;19.20;90.50;;;20.09;50.79;100852.81;5210403;28;20041;-87
2022/06/01 05:59:11;;;;;;;5.00;1.77;;;19.30;89.00;;;20.17;50.51;100850.13;5210402;28;20436;-81
2022/06/01 06:01:43;;;;;;;2.47;2.00;;;19.40;87.90;;;20.30;50.67;100852.72;5207585;28;20191;-81
2022/06/01 06:04:16;;;;;;;4.20;2.13;;;19.60;88.10;;;20.50;50.02;100849.13;5202382;28;20050;-81
2022/06/01 06:06:49;;;;;;;4.47;2.13;;;19.70;86.80;;;20.51;48.80;100845.59;5209559;28;20045;-81
2022/06/01 06:09:24;;;;;;;3.53;2.13;;;19.80;84.50;;;20.19;48.63;100846.56;5209676;28;20054;-80
2022/06/01 06:11:56;;;;;;;3.80;2.20;;;19.60;82.90;;;19.79;49.58;100844.06;5211083;28;20049;-80
2022/06/01 06:14:28;;;;;;;3.45;1.83;;;19.30;83.60;;;19.65;50.14;100851.13;5210688;28;20500;-80
2022/06/01 06:17:00;;;;;;;2.78;1.98;;;19.10;84.50;;;19.82;50.78;100859.03;5210752;28;20045;-81
2022/06/01 06:19:37;;;;;;;3.00;1.70;;;19.10;86.30;;;19.99;49.35;100851.94;5212350;28;20061;-83
2022/06/01 06:22:09;;;;;;;2.53;1.73;;;19.30;83.60;;;20.13;49.12;100862.47;5215052;28;20079;-84
2022/06/01 06:24:41;;;;;;;3.70;2.00;;;19.40;83.30;;;20.28;48.43;100849.22;5214361;28;20050;-83
2022/06/01 06:27:13;;;;;;;5.28;1.65;;;19.60;82.50;;;20.63;48.62;100856.13;5213189;28;20496;-83
2022/06/01 06:29:45;;;;;;;3.83;1.60;;;19.90;82.70;;;20.92;47.60;100863.00;5191933;28;20056;-86
2022/06/01 06:32:17;;;;;;;3.92;1.70;;;20.10;81.10;;;21.13;46.75;100860.22;5188597;28;20076;-83
2022/06/01 06:34:51;;;;;;;5.22;1.75;;;20.40;79.20;;;21.35;46.17;100869.78;5180679;28;20050;-86
2022/06/01 06:37:23;;;;;;;4.43;1.65;;;20.60;78.30;;;21.64;45.61;100866.00;5187527;28;20064;-85
2022/06/01 06:39:55;;;;;;;3.13;1.50;;;20.80;77.10;;;21.89;44.36;100859.53;5194202;28;20072;-88
2022/06/01 06:42:27;;;;;;;3.72;1.50;;;21.10;75.20;;;22.01;44.13;100865.63;5189814;28;20077;-84
2022/06/01 06:44:59;;;;;;;3.03;1.65;;;21.20;74.30;;;21.93;43.98;100866.59;5185969;28;20046;-82
2022/06/01 06:47:33;;;;;;;3.80;1.42;;;21.20;73.70;;;21.97;43.68;100862.13;5171791;28;20076;-85
2022/06/01 06:50:09;;;;;;;3.88;1.60;;;21.30;73.10;;;22.26;43.87;100864.50;5176541;28;20049;-82
2022/06/01 06:52:41;;;;;;;3.58;1.52;;;21.50;73.20;;;22.36;43.09;100855.50;5188733;28;20061;-85
2022/06/01 06:55:14;;;;;;;3.17;1.30;;;21.60;72.30;;;22.32;42.76;100861.75;5173370;28;20065;-83
2022/06/01 06:57:46;;;;;;;3.10;1.38;;;21.60;71.10;;;22.18;42.97;100869.03;5190607;28;20073;-84
2022/06/01 07:00:19;;;;;;;3.90;1.75;;;21.50;71.20;;;22.09;43.40;100867.31;5182459;28;20053;-84
2022/06/01 07:02:51;;;;;;;3.83;1.30;;;21.40;71.70;;;22.24;43.30;100863.63;5180671;28;20046;-86
2022/06/01 07:08:14;;;;;;;1.98;1.20;;;21.50;71.10;;;22.57;41.87;100869.41;5177952;28;20065;-82
2022/06/01 07:10:47;;;;;;;2.42;1.10;;;21.70;69.90;;;22.59;41.90;100878.25;5188615;28;20054;-87
2022/06/01 07:13:19;;;;;;;3.45;1.13;;;21.80;69.10;;;22.56;41.50;100870.28;5190992;28;20136;-86
2022/06/01 07:16:11;;;;;;;4.00;1.10;;;21.70;69.10;;;22.42;42.19;100867.81;5191994;28;20052;-85
2022/06/01 07:18:45;;;;;;;3.95;1.20;;;21.70;69.50;;;22.25;42.40;100875.13;5192747;28;20060;-85
2022/06/01 07:21:21;;;;;;;2.65;1.20;;;21.50;69.40;;;22.07;42.25;100873.53;5211399;28;20128;-85
2022/06/01 07:23:53;;;;;;;3.38;1.20;;;21.40;69.00;;;22.21;42.81;100880.47;5211307;28;20246;-85
2022/06/01 07:26:28;;;;;;;2.85;1.02;;;21.40;69.70;;;22.51;41.42;100880.13;5211068;28;20138;-84
2022/06/01 07:29:00;;;;;;;4.45;1.27;;;21.60;68.40;;;22.72;40.59;100887.81;5211646;28;20061;-84
2022/06/01 07:31:32;;;;;;;4.72;1.30;;;21.80;67.10;;;23.01;40.27;100879.44;5211290;28;20516;-84
2022/06/01 07:34:05;;;;;;;3.90;1.60;;;22.00;67.60;;;23.27;39.37;100876.38;5205085;28;20060;-83
2022/06/01 07:36:38;;;;;;;3.97;1.30;;;22.20;65.50;;;23.30;39.69;100876.34;5187646;28;20518;-83
2022/06/01 07:44:53;;;;;;;3.30;1.25;;;22.30;63.90;;;23.44;39.26;100876.97;5190157;28;20479;-83
2022/06/01 07:47:25;;;;;;;2.25;1.20;;;22.40;65.00;;;23.54;38.67;100881.25;5189194;28;20477;-84
2022/06/01 07:49:57;;;;;;;1.20;0.70;;;22.50;64.30;;;23.51;38.94;100870.66;5188905;28;20053;-83
2022/06/01 07:52:31;;;;;;;1.55;0.80;;;22.50;64.20;;;23.47;38.51;100874.28;5189959;28;20049;-84
2022/06/01 07:55:03;;;;;;;3.28;0.90;;;22.50;63.80;;;23.10;38.61;100878.44;5190109;28;20071;-82
2022/06/01 07:57:35;;;;;;;0.93;0.75;;;22.30;62.90;;;22.65;38.68;100883.47;5203758;28;20045;-85
2022/06/01 08:00:09;;;;;;;1.15;0.80;;;21.90;62.90;;;22.40;38.83;100873.16;5210798;28;20045;-83
2022/06/01 08:02:42;;;;;;;2.17;0.82;;;21.60;63.60;;;22.20;39.39;100885.78;5211344;28;20050;-84
2022/06/01 08:05:18;;;;;;;2.10;0.80;;;21.30;64.00;;;21.92;40.03;100886.06;5205839;28;20049;-83
2022/06/01 08:07:51;;;;;;;2.45;1.20;;;21.00;64.50;;;22.11;39.79;100883.25;5201549;28;20392;-83
2022/06/01 08:10:23;;;;;;;2.17;0.90;;;21.00;64.90;;;21.88;39.97;100886.97;5209711;28;20060;-85
2022/06/01 08:13:07;;;;;;;1.45;0.80;;;20.80;65.10;;;21.93;40.65;100895.78;5209444;28;20055;-85
2022/06/01 08:15:43;;;;;;;1.25;0.70;;;20.70;66.00;;;22.78;40.24;100886.84;5209820;28;20051;-84
2022/06/01 08:18:19;;;;;;;1.80;1.00;;;21.10;66.90;;;24.02;38.31;100881.28;5210643;28;20062;-85
2022/06/01 08:20:52;;;;;;;3.25;1.52;;;21.80;66.40;;;24.60;36.39;100893.47;5204755;28;20479;-85
2022/06/01 08:23:28;;;;;;;4.57;1.27;;;22.20;63.80;;;24.90;36.19;100893.69;5190806;28;20049;-85
2022/06/01 08:26:00;;;;;;;1.27;0.80;;;22.50;63.80;;;24.59;36.25;100901.50;5190283;28;20050;-85
2022/06/01 08:28:32;;;;;;;3.42;1.23;;;22.40;63.20;;;24.05;36.46;100905.19;5190849;28;20085;-86
2022/06/01 08:31:04;;;;;;;2.67;0.80;;;22.20;62.50;;;23.39;37.05;100913.41;5191281;28;20053;-85
2022/06/01 08:33:37;;;;;;;2.03;1.02;;;21.80;62.70;;;23.36;38.88;100904.63;5192438;28;20069;-83
2022/06/01 08:36:09;;;;;;;2.10;1.20;;;21.60;64.80;;;25.05;36.03;100912.03;5194168;28;20389;-85
2022/06/01 08:38:42;;;;;;;2.13;0.70;;;22.40;63.80;;;27.02;32.54;100905.84;5200625;28;20080;-84
2022/06/01 08:41:16;;;;;;;2.63;0.82;;;23.50;61.10;;;28.52;30.33;100898.06;5210834;28;20061;-85
2022/06/01 08:43:53;;;;;;;2.95;0.90;;;24.70;58.70;;;29.75;29.32;100908.31;5211941;28;20403;-85
2022/06/01 08:46:26;;;;;;;2.83;0.95;;;25.80;57.60;;;29.16;27.79;100907.16;5210417;28;20058;-85
2022/06/01 08:49:04;;;;;;;1.55;0.80;;;26.00;54.20;;;29.26;28.72;100907.66;5210957;28;20107;-86
2022/06/01 08:51:36;;;;;;;1.52;0.73;;;26.10;55.20;;;29.89;27.83;100908.59;5210629;28;20046;-86
2022/06/01 08:54:10;;;;;;;2.53;1.05;;;26.60;54.40;;;30.91;26.69;100915.66;5210736;28;20050;-86
2022/06/01 08:56:45;;;;;;;2.63;0.80;;;27.30;53.40;;;32.04;25.29;100910.88;5210458;28;20049;-85
2022/06/01 08:59:30;;;;;;;2.67;0.90;;;28.10;52.10;;;32.49;24.95;100901.31;5212624;28;20059;-87
2022/06/01 09:02:23;;;;;;;1.55;0.80;;;28.50;51.40;;;32.85;24.28;100919.97;5214104;28;20050;-87
2022/06/01 09:05:01;;;;;;;2.92;1.08;;;29.00;50.30;;;32.84;24.14;100907.44;5212864;28;20368;-85
2022/06/01 09:07:39;;;;;;;2.97;1.10;;;29.00;49.60;;;33.30;24.11;100909.38;5213577;28;20049;-86
2022/06/01 09:10:40;;;;;;;2.97;0.88;;;29.30;50.00;;;33.81;23.42;100920.78;5216924;28;20057;-85
2022/06/01 09:13:23;;;;;;;1.80;0.80;;;29.70;49.10;;;34.00;22.82;100910.63;5217391;28;20045;-86
2022/06/01 09:15:59;;;;;;;1.63;0.68;;;29.90;48.70;;;33.96;22.86;100914.47;5218125;28;20079;-86
2022/06/01 09:18:39;;;;;;;1.67;0.80;;;30.00;47.90;;;33.50;23.21;100906.41;5217398;28;20052;-86
2022/06/01 09:24:14;;;;;;;2.05;0.63;;;29.40;48.20;;;32.14;25.16;100905.88;5217704;28;20060;-86
2022/06/01 09:26:57;;;;;;;;;;;29.10;48.90;;;31.29;25.46;100901.22;5217993;28;20057;-85
2022/06/01 09:29:33;;;;;;;2.65;0.82;;;28.80;48.90;;;30.75;25.96;100905.63;5217247;28;19921;-85
2022/06/01 09:32:08;;;;;;;3.40;1.10;;;28.50;49.00;;;30.20;27.46;100907.28;5206057;28;20485;-86
2022/06/01 09:34:48;;;;;;;2.97;1.10;;;28.20;50.00;;;29.36;28.57;100905.47;5210121;28;20049;-87
2022/06/01 09:37:24;;;;;;;3.45;0.80;;;27.80;50.90;;;28.42;29.49;100896.63;5207178;28;20041;-85
2022/06/01 09:39:59;;;;;;;1.80;0.70;;;27.20;51.10;;;27.81;30.18;100895.22;5215163;28;20042;-84
2022/06/01 09:42:38;;;;;;;3.80;0.82;;;26.70;51.60;;;27.46;31.27;100899.09;5215649;28;20099;-86
2022/06/01 09:45:25;;;;;;;2.45;0.80;;;26.40;52.60;;;27.02;31.22;100896.00;5214741;28;20041;-86
2022/06/01 09:48:13;;;;;;;1.50;0.90;;;26.10;52.40;;;26.29;32.40;100905.34;5215103;28;20052;-85
2022/06/01 09:50:46;;;;;;;3.15;0.98;;;25.50;53.10;;;26.00;33.44;100892.78;5215140;28;20054;-84
2022/06/01 09:53:21;;;;;;;1.70;0.70;;;25.20;54.40;;;25.59;33.74;100892.94;5214948;28;20056;-86
2022/06/01 09:55:57;;;;;;;3.20;0.90;;;24.80;54.60;;;25.35;33.38;100898.88;5214679;28;20049;-85
2022/06/01 10:07:19;;;;;;;2.45;0.77;;;24.00;55.20;;;23.95;34.57;100884.97;5218484;23;20100;-86
2022/06/01 10:09:57;;;;;;;1.23;0.70;;;23.40;54.80;;;23.93;35.22;100888.56;5201863;28;20060;-84
2022/06/01 10:12:34;;;;;;;1.90;0.77;;;23.20;55.90;;;24.07;34.85;100890.06;5214974;28;20053;-86
2022/06/01 10:15:20;;;;;;;1.15;0.80;;;23.20;55.70;;;23.86;35.18;100893.13;5214884;28;20097;-85
2022/06/01 10:17:57;;;;;;;1.63;0.93;;;23.10;55.90;;;23.64;35.09;100897.06;5194424;28;20054;-85
2022/06/01 10:20:35;;;;;;;1.33;0.73;;;22.90;55.70;;;23.19;35.73;100900.41;5193915;28;20057;-84
2022/06/01 10:23:12;;;;;;;1.48;0.80;;;22.60;55.80;;;22.90;36.16;100902.66;5194258;28;20068;-84
2022/06/01 10:25:51;;;;;;;1.00;0.80;;;22.30;56.50;;;22.77;36.44;100898.38;5194428;28;20045;-84
2022/06/01 10:28:28;;;;;;;0.98;0.75;;;22.20;56.90;;;23.02;36.44;100894.50;5193889;28;20054;-84
2022/06/01 10:31:04;;;;;;;1.15;0.70;;;22.20;57.30;;;23.50;36.55;100895.50;5194662;28;20050;-85
2022/06/01 10:33:42;;;;;;;2.85;1.00;;;22.60;57.80;;;23.71;35.56;100899.59;5193704;28;20499;-83
2022/06/01 10:36:20;;;;;;;2.33;1.10;;;22.80;56.70;;;23.63;35.23;100898.00;5193902;28;20046;-84
2022/06/01 10:39:00;;;;;;;1.77;1.00;;;22.80;56.20;;;23.42;34.89;100899.19;5193595;28;20057;-85
2022/06/01 10:41:38;;;;;;;1.08;0.93;;;22.70;55.70;;;23.17;35.99;100898.72;5193763;28;20053;-85
2022/06/01 10:44:18;;;;;;;1.45;0.93;;;22.50;56.60;;;22.98;36.89;100893.66;5181627;28;20046;-78
2022/06/01 10:46:58;;;;;;;2.15;1.15;;;22.40;57.50;;;22.91;38.42;100894.66;5177836;28;20047;-79
2022/06/01 10:49:44;;;;;;;2.25;1.00;;;22.30;59.40;;;22.86;38.95;100891.16;5187292;28;20053;-78
2022/06/01 10:52:26;;;;;;;3.95;1.15;;;22.20;59.80;;;22.85;39.32;100900.00;5181009;28;20485;-83
2022/06/01 10:55:11;;;;;;;2.45;1.10;;;22.20;60.50;;;22.93;39.28;100894.63;5189878;28;20054;-80
2022/06/01 10:57:47;;;;;;;2.70;1.27;;;22.20;60.60;;;22.99;39.36;100898.06;5193279;28;20050;-81
2022/06/01 11:00:22;;;;;;;1.73;0.98;;;22.20;60.80;;;22.89;38.41;100891.16;5194148;28;20510;-80
2022/06/01 11:03:28;;;;;;;0.90;0.82;;;22.20;59.70;;;22.90;38.07;100884.91;5185100;28;20141;-79
2022/06/01 11:06:19;;;;;;;1.52;0.85;;;22.20;59.10;;;23.01;38.51;100887.41;5170085;28;20050;-81
2022/06/01 11:09:03;;;;;;;1.70;1.10;;;22.30;59.70;;;23.17;38.71;100885.41;5169478;28;20389;-81
2022/06/01 11:11:42;;;;;;;3.35;1.45;;;22.40;60.00;;;23.38;38.50;100873.53;5170492;28;20056;-80
2022/06/01 11:14:35;;;;;;;17.50;6.10;;;22.50;60.10;;;23.44;38.48;100873.44;5173073;28;20041;-82
2022/06/01 11:17:15;;;;;;;47.10;18.70;;;22.70;60.00;;;23.54;38.59;100877.72;5172849;28;20078;-79
2022/06/01 11:20:03;;;;;;;15.27;5.53;;;22.70;60.20;;;23.65;37.71;100881.06;5170505;28;20534;-81